sensor_id;sensor_type;location;lat;lon;timestamp;temperature;humidity
41435;DHT22;27177;22.262;114.192;2023-03-03T00:01:03;15.20;99.90
41435;DHT22;27177;22.262;114.192;2023-03-03T00:03:29;15.20;99.90
41435;DHT22;27177;22.262;114.192;2023-03-03T00:05:55;15.20;99.90
41435;DHT22;27177;22.262;114.192;2023-03-03T00:08:22;15.30;99.90
41435;DHT22;27177;22.262;114.192;2023-03-03T00:10:49;15.30;99.90
41435;DHT22;27177;22.262;114.192;2023-03-03T00:13:16;15.30;99.90
41435;DHT22;27177;22.262;114.192;2023-03-03T00:15:43;15.30;99.90
41435;DHT22;27177;22.262;114.192;2023-03-03T00:18:25;15.40;99.90
41435;DHT22;27177;22.262;114.192;2023-03-03T00:20:54;15.40;99.90
41435;DHT22;27177;22.262;114.192;2023-03-03T00:23:29;15.40;99.90
41435;DHT22;27177;22.262;114.192;2023-03-03T00:25:56;15.40;99.90
41435;DHT22;27177;22.262;114.192;2023-03-03T00:28:29;15.40;99.90
41435;DHT22;27177;22.262;114.192;2023-03-03T00:30:59;15.50;99.90
41435;DHT22;27177;22.262;114.192;2023-03-03T00:33:32;15.50;99.90
41435;DHT22;27177;22.262;114.192;2023-03-03T00:38:41;15.50;99.90
41435;DHT22;27177;22.262;114.192;2023-03-03T00:41:25;15.60;99.90
41435;DHT22;27177;22.262;114.192;2023-03-03T00:43:52;15.60;99.90
41435;DHT22;27177;22.262;114.192;2023-03-03T00:46:20;15.60;99.90
41435;DHT22;27177;22.262;114.192;2023-03-03T00:48:47;15.70;99.90
41435;DHT22;27177;22.262;114.192;2023-03-03T00:54:09;15.70;99.90
41435;DHT22;27177;22.262;114.192;2023-03-03T00:56:35;15.80;99.90
41435;DHT22;27177;22.262;114.192;2023-03-03T00:59:03;15.80;99.90
41435;DHT22;27177;22.262;114.192;2023-03-03T01:01:32;15.80;99.90
41435;DHT22;27177;22.262;114.192;2023-03-03T01:03:58;15.80;99.90
41435;DHT22;27177;22.262;114.192;2023-03-03T01:06:24;15.80;99.90
41435;DHT22;27177;22.262;114.192;2023-03-03T01:08:51;15.90;99.90
41435;DHT22;27177;22.262;114.192;2023-03-03T01:11:20;15.90;99.90
41435;DHT22;27177;22.262;114.192;2023-03-03T01:13:48;15.90;99.90
41435;DHT22;27177;22.262;114.192;2023-03-03T01:16:15;15.90;99.90
41435;DHT22;27177;22.262;114.192;2023-03-03T01:18:41;16.00;99.90
41435;DHT22;27177;22.262;114.192;2023-03-03T01:21:08;16.10;99.90
41435;DHT22;27177;22.262;114.192;2023-03-03T01:23:35;16.10;99.90
41435;DHT22;27177;22.262;114.192;2023-03-03T01:26:01;16.10;99.90
41435;DHT22;27177;22.262;114.192;2023-03-03T01:28:27;16.10;99.90
41435;DHT22;27177;22.262;114.192;2023-03-03T01:30:54;16.10;99.90
41435;DHT22;27177;22.262;114.192;2023-03-03T01:33:20;16.10;99.90
41435;DHT22;27177;22.262;114.192;2023-03-03T01:35:46;16.10;99.90
41435;DHT22;27177;22.262;114.192;2023-03-03T01:38:13;16.10;99.90
41435;DHT22;27177;22.262;114.192;2023-03-03T01:40:40;16.10;99.90
41435;DHT22;27177;22.262;114.192;2023-03-03T01:43:06;16.20;99.90
41435;DHT22;27177;22.262;114.192;2023-03-03T01:48:19;16.30;99.90
41435;DHT22;27177;22.262;114.192;2023-03-03T01:50:49;16.40;99.90
41435;DHT22;27177;22.262;114.192;2023-03-03T01:54:03;16.30;99.90
41435;DHT22;27177;22.262;114.192;2023-03-03T01:56:03;16.30;99.90
41435;DHT22;27177;22.262;114.192;2023-03-03T01:58:34;16.30;99.90
41435;DHT22;27177;22.262;114.192;2023-03-03T02:01:06;16.30;99.90
41435;DHT22;27177;22.262;114.192;2023-03-03T02:03:34;16.30;99.90
41435;DHT22;27177;22.262;114.192;2023-03-03T02:06:02;16.30;99.90
41435;DHT22;27177;22.262;114.192;2023-03-03T02:08:34;16.50;99.90
41435;DHT22;27177;22.262;114.192;2023-03-03T02:11:02;16.50;99.90
41435;DHT22;27177;22.262;114.192;2023-03-03T02:13:29;16.50;99.90
41435;DHT22;27177;22.262;114.192;2023-03-03T02:15:56;16.40;99.90
41435;DHT22;27177;22.262;114.192;2023-03-03T02:18:23;16.40;99.90
41435;DHT22;27177;22.262;114.192;2023-03-03T02:20:56;16.40;99.90
41435;DHT22;27177;22.262;114.192;2023-03-03T02:28:25;16.50;99.90
41435;DHT22;27177;22.262;114.192;2023-03-03T02:30:56;16.50;99.90
41435;DHT22;27177;22.262;114.192;2023-03-03T02:33:23;16.60;99.90
41435;DHT22;27177;22.262;114.192;2023-03-03T02:35:53;16.50;99.90
41435;DHT22;27177;22.262;114.192;2023-03-03T02:39:20;16.60;99.90
41435;DHT22;27177;22.262;114.192;2023-03-03T02:41:17;16.60;99.90
41435;DHT22;27177;22.262;114.192;2023-03-03T02:46:17;16.70;99.90
41435;DHT22;27177;22.262;114.192;2023-03-03T02:48:44;16.70;99.90
41435;DHT22;27177;22.262;114.192;2023-03-03T02:51:10;16.70;99.90
41435;DHT22;27177;22.262;114.192;2023-03-03T02:53:36;16.60;99.90
41435;DHT22;27177;22.262;114.192;2023-03-03T02:56:02;16.70;99.90
41435;DHT22;27177;22.262;114.192;2023-03-03T02:58:29;16.70;99.90
41435;DHT22;27177;22.262;114.192;2023-03-03T03:00:55;16.80;99.90
41435;DHT22;27177;22.262;114.192;2023-03-03T03:03:22;16.90;99.90
41435;DHT22;27177;22.262;114.192;2023-03-03T03:05:48;17.00;99.90
41435;DHT22;27177;22.262;114.192;2023-03-03T03:08:14;17.10;99.90
41435;DHT22;27177;22.262;114.192;2023-03-03T03:10:41;17.00;99.90
41435;DHT22;27177;22.262;114.192;2023-03-03T03:13:07;17.00;99.90
41435;DHT22;27177;22.262;114.192;2023-03-03T03:15:34;17.10;99.90
41435;DHT22;27177;22.262;114.192;2023-03-03T03:18:00;17.10;99.90
41435;DHT22;27177;22.262;114.192;2023-03-03T03:20:26;17.00;99.90
41435;DHT22;27177;22.262;114.192;2023-03-03T03:22:53;17.10;99.90
41435;DHT22;27177;22.262;114.192;2023-03-03T03:25:19;17.00;99.90
41435;DHT22;27177;22.262;114.192;2023-03-03T03:27:48;17.10;99.90
41435;DHT22;27177;22.262;114.192;2023-03-03T03:30:14;17.00;99.90
41435;DHT22;27177;22.262;114.192;2023-03-03T03:32:40;17.10;99.90
41435;DHT22;27177;22.262;114.192;2023-03-03T03:35:07;17.10;99.90
41435;DHT22;27177;22.262;114.192;2023-03-03T03:37:33;17.20;99.90
41435;DHT22;27177;22.262;114.192;2023-03-03T03:39:59;17.30;99.90
41435;DHT22;27177;22.262;114.192;2023-03-03T03:42:26;17.30;99.90
41435;DHT22;27177;22.262;114.192;2023-03-03T03:44:52;17.30;99.90
41435;DHT22;27177;22.262;114.192;2023-03-03T03:47:18;17.40;99.90
41435;DHT22;27177;22.262;114.192;2023-03-03T03:49:44;17.50;99.90
41435;DHT22;27177;22.262;114.192;2023-03-03T03:52:11;17.50;99.90
41435;DHT22;27177;22.262;114.192;2023-03-03T03:54:37;17.60;99.90
41435;DHT22;27177;22.262;114.192;2023-03-03T03:57:04;17.60;99.90
41435;DHT22;27177;22.262;114.192;2023-03-03T03:59:30;17.50;99.70
41435;DHT22;27177;22.262;114.192;2023-03-03T04:01:57;17.50;99.90
41435;DHT22;27177;22.262;114.192;2023-03-03T04:04:23;17.60;99.70
41435;DHT22;27177;22.262;114.192;2023-03-03T04:06:49;17.70;99.20
41435;DHT22;27177;22.262;114.192;2023-03-03T04:09:15;17.80;99.30
41435;DHT22;27177;22.262;114.192;2023-03-03T04:11:42;17.80;98.30
41435;DHT22;27177;22.262;114.192;2023-03-03T04:14:08;17.90;98.60
41435;DHT22;27177;22.262;114.192;2023-03-03T04:16:34;17.80;98.50
41435;DHT22;27177;22.262;114.192;2023-03-03T04:19:00;17.80;98.50
41435;DHT22;27177;22.262;114.192;2023-03-03T04:21:27;17.70;98.60
41435;DHT22;27177;22.262;114.192;2023-03-03T04:23:53;17.80;98.30
41435;DHT22;27177;22.262;114.192;2023-03-03T04:26:19;17.90;97.90
41435;DHT22;27177;22.262;114.192;2023-03-03T04:28:46;17.80;97.80
41435;DHT22;27177;22.262;114.192;2023-03-03T04:31:12;17.80;98.40
41435;DHT22;27177;22.262;114.192;2023-03-03T04:33:40;17.90;98.60
41435;DHT22;27177;22.262;114.192;2023-03-03T04:36:06;18.00;98.70
41435;DHT22;27177;22.262;114.192;2023-03-03T04:38:35;18.10;98.90
41435;DHT22;27177;22.262;114.192;2023-03-03T04:43:37;18.20;99.00
41435;DHT22;27177;22.262;114.192;2023-03-03T04:46:03;18.20;98.80
41435;DHT22;27177;22.262;114.192;2023-03-03T04:48:30;18.30;98.70
41435;DHT22;27177;22.262;114.192;2023-03-03T04:50:56;18.40;98.70
41435;DHT22;27177;22.262;114.192;2023-03-03T04:53:22;18.50;98.40
41435;DHT22;27177;22.262;114.192;2023-03-03T04:55:49;18.40;98.60
41435;DHT22;27177;22.262;114.192;2023-03-03T04:58:16;18.50;98.60
41435;DHT22;27177;22.262;114.192;2023-03-03T05:03:18;18.50;98.50
41435;DHT22;27177;22.262;114.192;2023-03-03T05:05:45;18.70;99.40
41435;DHT22;27177;22.262;114.192;2023-03-03T05:08:22;18.80;99.70
41435;DHT22;27177;22.262;114.192;2023-03-03T05:10:52;19.00;99.90
41435;DHT22;27177;22.262;114.192;2023-03-03T05:15:54;19.10;99.20
41435;DHT22;27177;22.262;114.192;2023-03-03T05:23:30;19.40;99.80
41435;DHT22;27177;22.262;114.192;2023-03-03T05:25:56;19.50;99.30
41435;DHT22;27177;22.262;114.192;2023-03-03T05:30:58;19.50;99.20
41435;DHT22;27177;22.262;114.192;2023-03-03T05:36:00;19.50;99.10
41435;DHT22;27177;22.262;114.192;2023-03-03T05:38:26;19.60;98.70
41435;DHT22;27177;22.262;114.192;2023-03-03T05:40:52;19.50;98.80
41435;DHT22;27177;22.262;114.192;2023-03-03T05:43:19;19.50;98.60
41435;DHT22;27177;22.262;114.192;2023-03-03T05:45:45;19.50;98.60
41435;DHT22;27177;22.262;114.192;2023-03-03T05:48:12;19.40;98.40
41435;DHT22;27177;22.262;114.192;2023-03-03T05:50:38;19.40;99.00
41435;DHT22;27177;22.262;114.192;2023-03-03T05:53:04;19.40;98.70
41435;DHT22;27177;22.262;114.192;2023-03-03T05:55:31;19.40;98.40
41435;DHT22;27177;22.262;114.192;2023-03-03T05:57:57;19.40;98.50
41435;DHT22;27177;22.262;114.192;2023-03-03T06:00:23;19.40;99.10
41435;DHT22;27177;22.262;114.192;2023-03-03T06:05:20;19.50;98.70
41435;DHT22;27177;22.262;114.192;2023-03-03T06:07:49;19.50;98.60
41435;DHT22;27177;22.262;114.192;2023-03-03T06:12:52;19.60;99.60
41435;DHT22;27177;22.262;114.192;2023-03-03T06:15:20;19.70;99.90
41435;DHT22;27177;22.262;114.192;2023-03-03T06:20:22;19.80;99.20
41435;DHT22;27177;22.262;114.192;2023-03-03T06:25:39;19.60;99.60
41435;DHT22;27177;22.262;114.192;2023-03-03T06:28:05;19.70;99.60
41435;DHT22;27177;22.262;114.192;2023-03-03T06:33:02;19.70;99.70
41435;DHT22;27177;22.262;114.192;2023-03-03T06:38:03;19.90;99.70
41435;DHT22;27177;22.262;114.192;2023-03-03T06:40:29;20.00;99.60
41435;DHT22;27177;22.262;114.192;2023-03-03T06:42:56;20.00;99.30
41435;DHT22;27177;22.262;114.192;2023-03-03T06:45:22;20.00;99.30
41435;DHT22;27177;22.262;114.192;2023-03-03T06:50:24;20.20;99.70
41435;DHT22;27177;22.262;114.192;2023-03-03T06:52:52;20.20;99.20
41435;DHT22;27177;22.262;114.192;2023-03-03T06:58:00;20.30;98.60
41435;DHT22;27177;22.262;114.192;2023-03-03T07:00:29;20.40;98.90
41435;DHT22;27177;22.262;114.192;2023-03-03T07:02:59;20.30;98.90
41435;DHT22;27177;22.262;114.192;2023-03-03T07:05:27;20.30;98.50
41435;DHT22;27177;22.262;114.192;2023-03-03T07:07:56;20.30;98.90
41435;DHT22;27177;22.262;114.192;2023-03-03T07:15:33;20.40;99.00
41435;DHT22;27177;22.262;114.192;2023-03-03T07:17:59;20.40;98.90
41435;DHT22;27177;22.262;114.192;2023-03-03T07:20:36;20.40;98.60
41435;DHT22;27177;22.262;114.192;2023-03-03T07:31:36;20.30;98.70
41435;DHT22;27177;22.262;114.192;2023-03-03T07:44:53;20.10;98.90
41435;DHT22;27177;22.262;114.192;2023-03-03T08:17:19;19.70;99.00
41435;DHT22;27177;22.262;114.192;2023-03-03T09:29:40;17.90;99.90
41435;DHT22;27177;22.262;114.192;2023-03-03T09:37:25;17.80;99.90
41435;DHT22;27177;22.262;114.192;2023-03-03T10:40:02;16.40;99.90
41435;DHT22;27177;22.262;114.192;2023-03-03T10:42:45;16.40;99.90
41435;DHT22;27177;22.262;114.192;2023-03-03T12:01:35;15.70;99.90
41435;DHT22;27177;22.262;114.192;2023-03-03T12:04:30;15.60;99.90
41435;DHT22;27177;22.262;114.192;2023-03-03T12:20:02;15.50;99.90
41435;DHT22;27177;22.262;114.192;2023-03-03T12:35:35;15.40;99.90
41435;DHT22;27177;22.262;114.192;2023-03-03T12:46:16;15.40;99.90
41435;DHT22;27177;22.262;114.192;2023-03-03T12:56:35;15.40;99.90
41435;DHT22;27177;22.262;114.192;2023-03-03T13:06:57;15.30;99.90
41435;DHT22;27177;22.262;114.192;2023-03-03T13:14:27;15.30;99.90
41435;DHT22;27177;22.262;114.192;2023-03-03T13:42:52;15.30;99.90
41435;DHT22;27177;22.262;114.192;2023-03-03T14:24:24;15.70;99.90
41435;DHT22;27177;22.262;114.192;2023-03-03T14:44:58;16.10;99.90
41435;DHT22;27177;22.262;114.192;2023-03-03T14:50:01;16.20;99.90
41435;DHT22;27177;22.262;114.192;2023-03-03T15:00:33;16.30;99.90
41435;DHT22;27177;22.262;114.192;2023-03-03T15:05:54;16.30;99.90
41435;DHT22;27177;22.262;114.192;2023-03-03T15:13:33;16.40;99.90
41435;DHT22;27177;22.262;114.192;2023-03-03T15:18:49;16.40;99.90
41435;DHT22;27177;22.262;114.192;2023-03-03T15:21:19;16.40;99.90
41435;DHT22;27177;22.262;114.192;2023-03-03T15:23:50;16.40;99.90
41435;DHT22;27177;22.262;114.192;2023-03-03T15:26:32;16.40;99.90
41435;DHT22;27177;22.262;114.192;2023-03-03T15:36:59;16.30;99.90
41435;DHT22;27177;22.262;114.192;2023-03-03T15:42:09;16.20;99.90
41435;DHT22;27177;22.262;114.192;2023-03-03T15:55:11;16.00;99.90
41435;DHT22;27177;22.262;114.192;2023-03-03T16:00:33;15.90;99.90
41435;DHT22;27177;22.262;114.192;2023-03-03T16:16:17;15.90;99.90
41435;DHT22;27177;22.262;114.192;2023-03-03T16:23:49;15.80;99.90
41435;DHT22;27177;22.262;114.192;2023-03-03T16:26:31;15.80;99.90
41435;DHT22;27177;22.262;114.192;2023-03-03T16:31:30;15.70;99.90
41435;DHT22;27177;22.262;114.192;2023-03-03T16:46:40;15.70;99.90
41435;DHT22;27177;22.262;114.192;2023-03-03T16:49:11;15.80;99.90
41435;DHT22;27177;22.262;114.192;2023-03-03T16:51:41;15.80;99.90
41435;DHT22;27177;22.262;114.192;2023-03-03T16:54:14;15.80;99.90
41435;DHT22;27177;22.262;114.192;2023-03-03T17:02:13;16.00;99.90
41435;DHT22;27177;22.262;114.192;2023-03-03T17:15:20;16.00;99.90
41435;DHT22;27177;22.262;114.192;2023-03-03T17:18:34;16.00;99.90
41435;DHT22;27177;22.262;114.192;2023-03-03T17:30:59;15.80;99.90
41435;DHT22;27177;22.262;114.192;2023-03-03T17:38:37;15.70;99.90
41435;DHT22;27177;22.262;114.192;2023-03-03T17:43:38;15.60;99.90
41435;DHT22;27177;22.262;114.192;2023-03-03T17:56:48;15.50;99.90
41435;DHT22;27177;22.262;114.192;2023-03-03T18:07:15;15.50;99.90
41435;DHT22;27177;22.262;114.192;2023-03-03T18:09:51;15.50;99.90
41435;DHT22;27177;22.262;114.192;2023-03-03T18:20:17;15.50;99.90
41435;DHT22;27177;22.262;114.192;2023-03-03T18:22:47;15.50;99.90
41435;DHT22;27177;22.262;114.192;2023-03-03T18:25:16;15.50;99.90
41435;DHT22;27177;22.262;114.192;2023-03-03T18:27:43;15.60;99.90
41435;DHT22;27177;22.262;114.192;2023-03-03T18:32:47;15.60;99.90
41435;DHT22;27177;22.262;114.192;2023-03-03T18:38:40;15.60;99.90
41435;DHT22;27177;22.262;114.192;2023-03-03T18:51:12;15.80;99.90
41435;DHT22;27177;22.262;114.192;2023-03-03T18:56:42;15.80;99.90
41435;DHT22;27177;22.262;114.192;2023-03-03T18:59:09;15.80;99.90
41435;DHT22;27177;22.262;114.192;2023-03-03T19:01:41;15.80;99.90
41435;DHT22;27177;22.262;114.192;2023-03-03T19:04:15;15.80;99.90
41435;DHT22;27177;22.262;114.192;2023-03-03T19:09:09;15.80;99.90
41435;DHT22;27177;22.262;114.192;2023-03-03T19:16:41;15.80;99.90
41435;DHT22;27177;22.262;114.192;2023-03-03T19:21:37;15.80;99.90
41435;DHT22;27177;22.262;114.192;2023-03-03T19:26:33;15.80;99.90
41435;DHT22;27177;22.262;114.192;2023-03-03T19:42:44;15.70;99.90
41435;DHT22;27177;22.262;114.192;2023-03-03T19:45:24;15.70;99.90
41435;DHT22;27177;22.262;114.192;2023-03-03T19:48:05;15.70;99.90
41435;DHT22;27177;22.262;114.192;2023-03-03T19:53:12;15.60;99.90
41435;DHT22;27177;22.262;114.192;2023-03-03T19:58:16;15.60;99.90
41435;DHT22;27177;22.262;114.192;2023-03-03T20:00:48;15.50;99.90
41435;DHT22;27177;22.262;114.192;2023-03-03T20:06:10;15.60;99.90
41435;DHT22;27177;22.262;114.192;2023-03-03T20:08:48;15.60;99.90
41435;DHT22;27177;22.262;114.192;2023-03-03T20:14:08;15.60;99.90
41435;DHT22;27177;22.262;114.192;2023-03-03T20:16:39;15.70;99.90
41435;DHT22;27177;22.262;114.192;2023-03-03T20:29:37;15.70;99.90
41435;DHT22;27177;22.262;114.192;2023-03-03T20:32:07;15.70;99.90
41435;DHT22;27177;22.262;114.192;2023-03-03T20:37:52;15.70;99.90
41435;DHT22;27177;22.262;114.192;2023-03-03T20:40:08;15.60;99.90
41435;DHT22;27177;22.262;114.192;2023-03-03T20:42:45;15.60;99.90
41435;DHT22;27177;22.262;114.192;2023-03-03T20:53:24;15.70;99.90
41435;DHT22;27177;22.262;114.192;2023-03-03T20:56:09;15.60;99.90
41435;DHT22;27177;22.262;114.192;2023-03-03T20:58:50;15.70;99.90
41435;DHT22;27177;22.262;114.192;2023-03-03T21:02:01;15.60;99.90
41435;DHT22;27177;22.262;114.192;2023-03-03T21:04:21;15.70;99.90
41435;DHT22;27177;22.262;114.192;2023-03-03T21:06:48;15.70;99.90
41435;DHT22;27177;22.262;114.192;2023-03-03T21:09:36;15.70;99.90
41435;DHT22;27177;22.262;114.192;2023-03-03T21:14:59;15.70;99.90
41435;DHT22;27177;22.262;114.192;2023-03-03T21:17:27;15.70;99.90
41435;DHT22;27177;22.262;114.192;2023-03-03T21:19:53;15.70;99.90
41435;DHT22;27177;22.262;114.192;2023-03-03T21:22:20;15.70;99.90
41435;DHT22;27177;22.262;114.192;2023-03-03T21:24:56;15.70;99.90
41435;DHT22;27177;22.262;114.192;2023-03-03T21:30:12;15.80;99.90
41435;DHT22;27177;22.262;114.192;2023-03-03T21:32:41;15.70;99.90
41435;DHT22;27177;22.262;114.192;2023-03-03T21:35:11;15.70;99.90
41435;DHT22;27177;22.262;114.192;2023-03-03T21:37:51;15.70;99.90
41435;DHT22;27177;22.262;114.192;2023-03-03T21:40:27;15.70;99.90
41435;DHT22;27177;22.262;114.192;2023-03-03T21:42:55;15.70;99.90
41435;DHT22;27177;22.262;114.192;2023-03-03T21:45:22;15.70;99.90
41435;DHT22;27177;22.262;114.192;2023-03-03T21:47:49;15.70;99.90
41435;DHT22;27177;22.262;114.192;2023-03-03T21:50:16;15.70;99.90
41435;DHT22;27177;22.262;114.192;2023-03-03T21:52:46;15.70;99.90
41435;DHT22;27177;22.262;114.192;2023-03-03T21:55:12;15.80;99.90
41435;DHT22;27177;22.262;114.192;2023-03-03T21:57:39;15.70;99.90
41435;DHT22;27177;22.262;114.192;2023-03-03T22:00:08;15.80;99.90
41435;DHT22;27177;22.262;114.192;2023-03-03T22:02:36;15.80;99.90
41435;DHT22;27177;22.262;114.192;2023-03-03T22:05:03;15.70;99.90
41435;DHT22;27177;22.262;114.192;2023-03-03T22:07:32;15.70;99.90
41435;DHT22;27177;22.262;114.192;2023-03-03T22:09:58;15.70;99.90
41435;DHT22;27177;22.262;114.192;2023-03-03T22:12:24;15.70;99.90
41435;DHT22;27177;22.262;114.192;2023-03-03T22:14:52;15.70;99.90
41435;DHT22;27177;22.262;114.192;2023-03-03T22:17:18;15.70;99.90
41435;DHT22;27177;22.262;114.192;2023-03-03T22:19:50;15.70;99.90
41435;DHT22;27177;22.262;114.192;2023-03-03T22:22:16;15.70;99.90
41435;DHT22;27177;22.262;114.192;2023-03-03T22:24:42;15.70;99.90
41435;DHT22;27177;22.262;114.192;2023-03-03T22:27:09;15.70;99.90
41435;DHT22;27177;22.262;114.192;2023-03-03T22:29:36;15.70;99.90
41435;DHT22;27177;22.262;114.192;2023-03-03T22:32:03;15.70;99.90
41435;DHT22;27177;22.262;114.192;2023-03-03T22:34:29;15.70;99.90
41435;DHT22;27177;22.262;114.192;2023-03-03T22:36:55;15.70;99.90
41435;DHT22;27177;22.262;114.192;2023-03-03T22:39:21;15.70;99.90
41435;DHT22;27177;22.262;114.192;2023-03-03T22:41:48;15.70;99.90
41435;DHT22;27177;22.262;114.192;2023-03-03T22:44:14;15.70;99.90
41435;DHT22;27177;22.262;114.192;2023-03-03T22:46:40;15.70;99.90
41435;DHT22;27177;22.262;114.192;2023-03-03T22:49:06;15.70;99.90
41435;DHT22;27177;22.262;114.192;2023-03-03T22:51:33;15.70;99.90
41435;DHT22;27177;22.262;114.192;2023-03-03T22:53:59;15.70;99.90
41435;DHT22;27177;22.262;114.192;2023-03-03T22:56:25;15.70;99.90
41435;DHT22;27177;22.262;114.192;2023-03-03T22:58:52;15.70;99.90
41435;DHT22;27177;22.262;114.192;2023-03-03T23:01:18;15.70;99.90
41435;DHT22;27177;22.262;114.192;2023-03-03T23:06:51;15.70;99.90
41435;DHT22;27177;22.262;114.192;2023-03-03T23:09:17;15.70;99.90
41435;DHT22;27177;22.262;114.192;2023-03-03T23:11:43;15.70;99.90
41435;DHT22;27177;22.262;114.192;2023-03-03T23:14:09;15.70;99.90
41435;DHT22;27177;22.262;114.192;2023-03-03T23:16:36;15.80;99.90
41435;DHT22;27177;22.262;114.192;2023-03-03T23:19:02;15.80;99.90
41435;DHT22;27177;22.262;114.192;2023-03-03T23:21:30;15.80;99.90
41435;DHT22;27177;22.262;114.192;2023-03-03T23:23:57;15.80;99.90
41435;DHT22;27177;22.262;114.192;2023-03-03T23:26:23;15.80;99.90
41435;DHT22;27177;22.262;114.192;2023-03-03T23:28:49;15.80;99.90
41435;DHT22;27177;22.262;114.192;2023-03-03T23:31:15;15.80;99.90
41435;DHT22;27177;22.262;114.192;2023-03-03T23:33:42;15.80;99.90
41435;DHT22;27177;22.262;114.192;2023-03-03T23:36:08;15.80;99.90
41435;DHT22;27177;22.262;114.192;2023-03-03T23:38:34;15.80;99.90
41435;DHT22;27177;22.262;114.192;2023-03-03T23:41:01;15.80;99.90
41435;DHT22;27177;22.262;114.192;2023-03-03T23:43:27;15.80;99.90
41435;DHT22;27177;22.262;114.192;2023-03-03T23:45:53;15.80;99.90
41435;DHT22;27177;22.262;114.192;2023-03-03T23:48:19;15.80;99.90
41435;DHT22;27177;22.262;114.192;2023-03-03T23:50:46;15.80;99.90
41435;DHT22;27177;22.262;114.192;2023-03-03T23:53:13;15.90;99.90
41435;DHT22;27177;22.262;114.192;2023-03-03T23:55:39;15.90;99.90
41435;DHT22;27177;22.262;114.192;2023-03-03T23:58:05;15.90;99.90
